sensor_id;sensor_type;location;lat;lon;timestamp;temperature;humidity
7030;DHT22;3556;53.500;10.176;2022-12-10T00:01:09;-0.90;99.90
7030;DHT22;3556;53.500;10.176;2022-12-10T00:03:35;-0.90;99.90
7030;DHT22;3556;53.500;10.176;2022-12-10T00:06:02;-0.90;99.90
7030;DHT22;3556;53.500;10.176;2022-12-10T00:08:28;-1.00;99.90
7030;DHT22;3556;53.500;10.176;2022-12-10T00:10:54;-0.90;99.90
7030;DHT22;3556;53.500;10.176;2022-12-10T00:13:20;-0.90;99.90
7030;DHT22;3556;53.500;10.176;2022-12-10T00:15:45;-0.90;99.90
7030;DHT22;3556;53.500;10.176;2022-12-10T00:18:11;-0.90;99.90
7030;DHT22;3556;53.500;10.176;2022-12-10T00:20:37;-1.00;99.90
7030;DHT22;3556;53.500;10.176;2022-12-10T00:23:03;-1.00;99.90
7030;DHT22;3556;53.500;10.176;2022-12-10T00:25:29;-1.00;99.90
7030;DHT22;3556;53.500;10.176;2022-12-10T00:27:54;-1.00;99.90
7030;DHT22;3556;53.500;10.176;2022-12-10T00:30:20;-1.00;99.90
7030;DHT22;3556;53.500;10.176;2022-12-10T00:32:45;-1.00;99.90
7030;DHT22;3556;53.500;10.176;2022-12-10T00:35:11;-1.00;99.90
7030;DHT22;3556;53.500;10.176;2022-12-10T00:37:37;-0.90;99.90
7030;DHT22;3556;53.500;10.176;2022-12-10T00:40:03;-0.90;99.90
7030;DHT22;3556;53.500;10.176;2022-12-10T00:42:28;-0.90;99.90
7030;DHT22;3556;53.500;10.176;2022-12-10T00:44:54;-0.90;99.90
7030;DHT22;3556;53.500;10.176;2022-12-10T00:47:19;-1.00;99.90
7030;DHT22;3556;53.500;10.176;2022-12-10T00:49:45;-1.00;99.90
7030;DHT22;3556;53.500;10.176;2022-12-10T00:52:10;-1.00;99.90
7030;DHT22;3556;53.500;10.176;2022-12-10T00:54:36;-1.00;99.90
7030;DHT22;3556;53.500;10.176;2022-12-10T00:57:02;-1.00;99.90
7030;DHT22;3556;53.500;10.176;2022-12-10T00:59:27;-1.00;99.90
7030;DHT22;3556;53.500;10.176;2022-12-10T01:01:53;-1.00;99.90
7030;DHT22;3556;53.500;10.176;2022-12-10T01:04:19;-1.00;99.90
7030;DHT22;3556;53.500;10.176;2022-12-10T01:06:49;-1.00;99.90
7030;DHT22;3556;53.500;10.176;2022-12-10T01:09:20;-1.00;99.90
7030;DHT22;3556;53.500;10.176;2022-12-10T01:11:47;-1.00;99.90
7030;DHT22;3556;53.500;10.176;2022-12-10T01:14:17;-1.00;99.90
7030;DHT22;3556;53.500;10.176;2022-12-10T01:16:43;-1.00;99.90
7030;DHT22;3556;53.500;10.176;2022-12-10T01:19:09;-1.00;99.90
7030;DHT22;3556;53.500;10.176;2022-12-10T01:21:35;-1.00;99.90
7030;DHT22;3556;53.500;10.176;2022-12-10T01:24:01;-1.00;99.90
7030;DHT22;3556;53.500;10.176;2022-12-10T01:26:29;-1.00;99.90
7030;DHT22;3556;53.500;10.176;2022-12-10T01:28:56;-1.00;99.90
7030;DHT22;3556;53.500;10.176;2022-12-10T01:31:33;-1.00;99.90
7030;DHT22;3556;53.500;10.176;2022-12-10T01:34:00;-1.10;99.90
7030;DHT22;3556;53.500;10.176;2022-12-10T01:36:29;-1.10;99.90
7030;DHT22;3556;53.500;10.176;2022-12-10T01:38:56;-1.10;99.90
7030;DHT22;3556;53.500;10.176;2022-12-10T01:41:36;-1.00;99.90
7030;DHT22;3556;53.500;10.176;2022-12-10T01:46:39;-1.00;99.90
7030;DHT22;3556;53.500;10.176;2022-12-10T01:49:15;-1.00;99.90
7030;DHT22;3556;53.500;10.176;2022-12-10T01:51:42;-1.00;99.90
7030;DHT22;3556;53.500;10.176;2022-12-10T01:54:13;-1.00;99.90
7030;DHT22;3556;53.500;10.176;2022-12-10T01:56:42;-1.00;99.90
7030;DHT22;3556;53.500;10.176;2022-12-10T01:59:09;-0.90;99.90
7030;DHT22;3556;53.500;10.176;2022-12-10T02:12:53;-0.90;99.90
7030;DHT22;3556;53.500;10.176;2022-12-10T02:15:23;-0.90;99.90
7030;DHT22;3556;53.500;10.176;2022-12-10T02:17:57;-0.90;99.90
7030;DHT22;3556;53.500;10.176;2022-12-10T02:20:35;-0.90;99.90
7030;DHT22;3556;53.500;10.176;2022-12-10T02:23:10;-0.90;99.90
7030;DHT22;3556;53.500;10.176;2022-12-10T02:26:02;-0.90;99.90
7030;DHT22;3556;53.500;10.176;2022-12-10T02:31:29;-0.80;99.90
7030;DHT22;3556;53.500;10.176;2022-12-10T02:33:58;-0.80;99.90
7030;DHT22;3556;53.500;10.176;2022-12-10T02:36:28;-0.90;99.90
7030;DHT22;3556;53.500;10.176;2022-12-10T02:38:56;-0.80;99.90
7030;DHT22;3556;53.500;10.176;2022-12-10T02:41:37;-0.80;99.90
7030;DHT22;3556;53.500;10.176;2022-12-10T02:44:09;-0.80;99.90
7030;DHT22;3556;53.500;10.176;2022-12-10T02:46:37;-0.80;99.90
7030;DHT22;3556;53.500;10.176;2022-12-10T02:49:05;-0.80;99.90
7030;DHT22;3556;53.500;10.176;2022-12-10T02:51:31;-0.90;99.90
7030;DHT22;3556;53.500;10.176;2022-12-10T02:57:00;-0.90;99.90
7030;DHT22;3556;53.500;10.176;2022-12-10T02:59:35;-0.90;99.90
7030;DHT22;3556;53.500;10.176;2022-12-10T03:02:16;-0.90;99.90
7030;DHT22;3556;53.500;10.176;2022-12-10T03:08:03;-0.80;99.90
7030;DHT22;3556;53.500;10.176;2022-12-10T03:10:33;-0.80;99.90
7030;DHT22;3556;53.500;10.176;2022-12-10T03:13:03;-0.80;99.90
7030;DHT22;3556;53.500;10.176;2022-12-10T03:15:34;-0.80;99.90
7030;DHT22;3556;53.500;10.176;2022-12-10T03:18:03;-0.90;99.90
7030;DHT22;3556;53.500;10.176;2022-12-10T03:20:32;-0.90;99.90
7030;DHT22;3556;53.500;10.176;2022-12-10T03:22:58;-0.90;99.90
7030;DHT22;3556;53.500;10.176;2022-12-10T03:25:26;-0.90;99.90
7030;DHT22;3556;53.500;10.176;2022-12-10T03:27:55;-0.80;99.90
7030;DHT22;3556;53.500;10.176;2022-12-10T03:30:23;-0.80;99.90
7030;DHT22;3556;53.500;10.176;2022-12-10T03:32:49;-0.90;99.90
7030;DHT22;3556;53.500;10.176;2022-12-10T03:35:16;-0.80;99.90
7030;DHT22;3556;53.500;10.176;2022-12-10T03:37:42;-0.80;99.90
7030;DHT22;3556;53.500;10.176;2022-12-10T03:40:09;-0.80;99.90
7030;DHT22;3556;53.500;10.176;2022-12-10T03:42:36;-0.80;99.90
7030;DHT22;3556;53.500;10.176;2022-12-10T03:45:03;-0.80;99.90
7030;DHT22;3556;53.500;10.176;2022-12-10T03:47:29;-0.80;99.90
7030;DHT22;3556;53.500;10.176;2022-12-10T03:49:54;-0.80;99.90
7030;DHT22;3556;53.500;10.176;2022-12-10T03:52:20;-0.80;99.90
7030;DHT22;3556;53.500;10.176;2022-12-10T03:54:45;-0.80;99.90
7030;DHT22;3556;53.500;10.176;2022-12-10T03:57:11;-0.80;99.90
7030;DHT22;3556;53.500;10.176;2022-12-10T03:59:37;-0.80;99.90
7030;DHT22;3556;53.500;10.176;2022-12-10T04:02:03;-0.80;99.90
7030;DHT22;3556;53.500;10.176;2022-12-10T04:04:28;-0.80;99.90
7030;DHT22;3556;53.500;10.176;2022-12-10T04:06:54;-0.80;99.90
7030;DHT22;3556;53.500;10.176;2022-12-10T04:09:20;-0.80;99.90
7030;DHT22;3556;53.500;10.176;2022-12-10T04:11:45;-0.80;99.90
7030;DHT22;3556;53.500;10.176;2022-12-10T04:14:12;-0.80;99.90
7030;DHT22;3556;53.500;10.176;2022-12-10T04:16:57;-0.80;99.90
7030;DHT22;3556;53.500;10.176;2022-12-10T04:19:23;-0.80;99.90
7030;DHT22;3556;53.500;10.176;2022-12-10T04:21:49;-0.80;99.90
7030;DHT22;3556;53.500;10.176;2022-12-10T04:24:35;-0.80;99.90
7030;DHT22;3556;53.500;10.176;2022-12-10T04:27:27;-0.80;99.90
7030;DHT22;3556;53.500;10.176;2022-12-10T04:29:54;-0.70;99.90
7030;DHT22;3556;53.500;10.176;2022-12-10T04:32:21;-0.70;99.90
7030;DHT22;3556;53.500;10.176;2022-12-10T04:34:47;-0.70;99.90
7030;DHT22;3556;53.500;10.176;2022-12-10T04:37:13;-0.70;99.90
7030;DHT22;3556;53.500;10.176;2022-12-10T04:39:39;-0.80;99.90
7030;DHT22;3556;53.500;10.176;2022-12-10T04:42:05;-0.80;99.90
7030;DHT22;3556;53.500;10.176;2022-12-10T04:44:31;-0.80;99.90
7030;DHT22;3556;53.500;10.176;2022-12-10T04:46:57;-0.80;99.90
7030;DHT22;3556;53.500;10.176;2022-12-10T04:49:22;-0.80;99.90
7030;DHT22;3556;53.500;10.176;2022-12-10T04:51:48;-0.80;99.90
7030;DHT22;3556;53.500;10.176;2022-12-10T04:54:15;-0.80;99.90
7030;DHT22;3556;53.500;10.176;2022-12-10T04:56:40;-0.80;99.90
7030;DHT22;3556;53.500;10.176;2022-12-10T04:59:07;-0.80;99.90
7030;DHT22;3556;53.500;10.176;2022-12-10T05:01:33;-0.80;99.90
7030;DHT22;3556;53.500;10.176;2022-12-10T05:04:00;-0.80;99.90
7030;DHT22;3556;53.500;10.176;2022-12-10T05:06:26;-0.80;99.90
7030;DHT22;3556;53.500;10.176;2022-12-10T05:08:52;-0.80;99.90
7030;DHT22;3556;53.500;10.176;2022-12-10T05:11:20;-0.80;99.90
7030;DHT22;3556;53.500;10.176;2022-12-10T05:13:47;-0.80;99.90
7030;DHT22;3556;53.500;10.176;2022-12-10T05:16:14;-0.80;99.90
7030;DHT22;3556;53.500;10.176;2022-12-10T05:18:40;-0.80;99.90
7030;DHT22;3556;53.500;10.176;2022-12-10T05:21:09;-0.80;99.90
7030;DHT22;3556;53.500;10.176;2022-12-10T05:23:40;-0.80;99.90
7030;DHT22;3556;53.500;10.176;2022-12-10T05:26:08;-0.80;99.90
7030;DHT22;3556;53.500;10.176;2022-12-10T05:28:36;-0.80;99.90
7030;DHT22;3556;53.500;10.176;2022-12-10T05:31:02;-0.80;99.90
7030;DHT22;3556;53.500;10.176;2022-12-10T05:33:28;-0.80;99.90
7030;DHT22;3556;53.500;10.176;2022-12-10T05:36:02;-0.80;99.90
7030;DHT22;3556;53.500;10.176;2022-12-10T05:38:29;-0.80;99.90
7030;DHT22;3556;53.500;10.176;2022-12-10T05:40:55;-0.80;99.90
7030;DHT22;3556;53.500;10.176;2022-12-10T05:43:20;-0.80;99.90
7030;DHT22;3556;53.500;10.176;2022-12-10T05:45:46;-0.90;99.90
7030;DHT22;3556;53.500;10.176;2022-12-10T05:48:14;-0.80;99.90
7030;DHT22;3556;53.500;10.176;2022-12-10T05:50:40;-0.90;99.90
7030;DHT22;3556;53.500;10.176;2022-12-10T05:53:06;-0.90;99.90
7030;DHT22;3556;53.500;10.176;2022-12-10T05:55:32;-0.90;99.90
7030;DHT22;3556;53.500;10.176;2022-12-10T05:57:59;-0.90;99.90
7030;DHT22;3556;53.500;10.176;2022-12-10T06:00:26;-0.90;99.90
7030;DHT22;3556;53.500;10.176;2022-12-10T06:02:52;-0.80;99.90
7030;DHT22;3556;53.500;10.176;2022-12-10T06:05:17;-0.80;99.90
7030;DHT22;3556;53.500;10.176;2022-12-10T06:07:43;-0.90;99.90
7030;DHT22;3556;53.500;10.176;2022-12-10T06:10:10;-0.90;99.90
7030;DHT22;3556;53.500;10.176;2022-12-10T06:12:36;-0.90;99.90
7030;DHT22;3556;53.500;10.176;2022-12-10T06:15:02;-0.90;99.90
7030;DHT22;3556;53.500;10.176;2022-12-10T06:17:28;-0.90;99.90
7030;DHT22;3556;53.500;10.176;2022-12-10T06:19:53;-0.90;99.90
7030;DHT22;3556;53.500;10.176;2022-12-10T06:22:19;-0.90;99.90
7030;DHT22;3556;53.500;10.176;2022-12-10T06:24:45;-0.90;99.90
7030;DHT22;3556;53.500;10.176;2022-12-10T06:27:10;-1.00;99.90
7030;DHT22;3556;53.500;10.176;2022-12-10T06:29:36;-1.00;99.90
7030;DHT22;3556;53.500;10.176;2022-12-10T06:32:01;-1.00;99.90
7030;DHT22;3556;53.500;10.176;2022-12-10T06:34:27;-1.00;99.90
7030;DHT22;3556;53.500;10.176;2022-12-10T06:36:53;-1.00;99.90
7030;DHT22;3556;53.500;10.176;2022-12-10T06:39:18;-1.00;99.90
7030;DHT22;3556;53.500;10.176;2022-12-10T06:41:44;-1.00;99.90
7030;DHT22;3556;53.500;10.176;2022-12-10T06:44:11;-1.00;99.90
7030;DHT22;3556;53.500;10.176;2022-12-10T06:46:39;-1.00;99.90
7030;DHT22;3556;53.500;10.176;2022-12-10T06:49:06;-1.00;99.90
7030;DHT22;3556;53.500;10.176;2022-12-10T06:51:32;-1.00;99.90
7030;DHT22;3556;53.500;10.176;2022-12-10T06:53:58;-1.00;99.90
7030;DHT22;3556;53.500;10.176;2022-12-10T06:56:24;-1.00;99.90
7030;DHT22;3556;53.500;10.176;2022-12-10T06:58:49;-1.10;99.90
7030;DHT22;3556;53.500;10.176;2022-12-10T07:01:20;-1.10;99.90
7030;DHT22;3556;53.500;10.176;2022-12-10T07:03:51;-1.10;99.90
7030;DHT22;3556;53.500;10.176;2022-12-10T07:06:17;-1.10;99.90
7030;DHT22;3556;53.500;10.176;2022-12-10T07:08:43;-1.10;99.90
7030;DHT22;3556;53.500;10.176;2022-12-10T07:11:11;-1.10;99.90
7030;DHT22;3556;53.500;10.176;2022-12-10T07:13:37;-1.10;99.90
7030;DHT22;3556;53.500;10.176;2022-12-10T07:16:11;-1.10;99.90
7030;DHT22;3556;53.500;10.176;2022-12-10T07:18:36;-1.10;99.90
7030;DHT22;3556;53.500;10.176;2022-12-10T07:21:08;-1.10;99.90
7030;DHT22;3556;53.500;10.176;2022-12-10T07:23:37;-1.10;99.90
7030;DHT22;3556;53.500;10.176;2022-12-10T07:26:03;-1.10;99.90
7030;DHT22;3556;53.500;10.176;2022-12-10T07:28:28;-1.10;99.90
7030;DHT22;3556;53.500;10.176;2022-12-10T07:31:01;-1.10;99.90
7030;DHT22;3556;53.500;10.176;2022-12-10T07:33:27;-1.10;99.90
7030;DHT22;3556;53.500;10.176;2022-12-10T07:35:52;-1.10;99.90
7030;DHT22;3556;53.500;10.176;2022-12-10T07:38:18;-1.10;99.90
7030;DHT22;3556;53.500;10.176;2022-12-10T07:40:44;-1.10;99.90
7030;DHT22;3556;53.500;10.176;2022-12-10T07:43:09;-1.10;99.90
7030;DHT22;3556;53.500;10.176;2022-12-10T07:45:35;-1.10;99.90
7030;DHT22;3556;53.500;10.176;2022-12-10T07:48:00;-1.10;99.90
7030;DHT22;3556;53.500;10.176;2022-12-10T07:50:26;-1.10;99.90
7030;DHT22;3556;53.500;10.176;2022-12-10T07:52:51;-1.10;99.90
7030;DHT22;3556;53.500;10.176;2022-12-10T07:55:17;-1.10;99.90
7030;DHT22;3556;53.500;10.176;2022-12-10T07:57:43;-1.10;99.90
7030;DHT22;3556;53.500;10.176;2022-12-10T08:00:09;-1.10;99.90
7030;DHT22;3556;53.500;10.176;2022-12-10T08:02:35;-1.10;99.90
7030;DHT22;3556;53.500;10.176;2022-12-10T08:05:01;-1.20;99.90
7030;DHT22;3556;53.500;10.176;2022-12-10T08:07:26;-1.20;99.90
7030;DHT22;3556;53.500;10.176;2022-12-10T08:09:52;-1.20;99.90
7030;DHT22;3556;53.500;10.176;2022-12-10T08:12:17;-1.20;99.90
7030;DHT22;3556;53.500;10.176;2022-12-10T08:14:43;-1.20;99.90
7030;DHT22;3556;53.500;10.176;2022-12-10T08:17:08;-1.20;99.90
7030;DHT22;3556;53.500;10.176;2022-12-10T08:19:34;-1.20;99.90
7030;DHT22;3556;53.500;10.176;2022-12-10T08:22:00;-1.20;99.90
7030;DHT22;3556;53.500;10.176;2022-12-10T08:24:25;-1.20;99.90
7030;DHT22;3556;53.500;10.176;2022-12-10T08:26:51;-1.20;99.90
7030;DHT22;3556;53.500;10.176;2022-12-10T08:29:16;-1.20;99.90
7030;DHT22;3556;53.500;10.176;2022-12-10T08:31:42;-1.20;99.90
7030;DHT22;3556;53.500;10.176;2022-12-10T08:34:14;-1.20;99.90
7030;DHT22;3556;53.500;10.176;2022-12-10T08:36:40;-1.10;99.90
7030;DHT22;3556;53.500;10.176;2022-12-10T08:39:05;-1.10;99.90
7030;DHT22;3556;53.500;10.176;2022-12-10T08:41:31;-1.10;99.90
7030;DHT22;3556;53.500;10.176;2022-12-10T08:43:57;-1.10;99.90
7030;DHT22;3556;53.500;10.176;2022-12-10T08:46:22;-1.00;99.90
7030;DHT22;3556;53.500;10.176;2022-12-10T08:48:50;-1.00;99.90
7030;DHT22;3556;53.500;10.176;2022-12-10T08:51:18;-1.00;99.90
7030;DHT22;3556;53.500;10.176;2022-12-10T08:53:44;-1.00;99.90
7030;DHT22;3556;53.500;10.176;2022-12-10T08:56:10;-0.90;99.90
7030;DHT22;3556;53.500;10.176;2022-12-10T08:58:36;-0.90;99.90
7030;DHT22;3556;53.500;10.176;2022-12-10T09:01:21;-0.90;99.90
7030;DHT22;3556;53.500;10.176;2022-12-10T09:03:46;-0.90;99.90
7030;DHT22;3556;53.500;10.176;2022-12-10T09:06:15;-0.80;99.90
7030;DHT22;3556;53.500;10.176;2022-12-10T09:08:41;-0.80;99.90
7030;DHT22;3556;53.500;10.176;2022-12-10T09:11:08;-0.80;99.90
7030;DHT22;3556;53.500;10.176;2022-12-10T09:13:34;-0.80;99.90
7030;DHT22;3556;53.500;10.176;2022-12-10T09:16:00;-0.80;99.90
7030;DHT22;3556;53.500;10.176;2022-12-10T09:18:26;-0.80;99.90
7030;DHT22;3556;53.500;10.176;2022-12-10T09:20:52;-0.80;99.90
7030;DHT22;3556;53.500;10.176;2022-12-10T09:23:17;-0.80;99.90
7030;DHT22;3556;53.500;10.176;2022-12-10T09:25:43;-0.80;99.90
7030;DHT22;3556;53.500;10.176;2022-12-10T09:28:09;-0.80;99.90
7030;DHT22;3556;53.500;10.176;2022-12-10T09:30:34;-0.80;99.90
7030;DHT22;3556;53.500;10.176;2022-12-10T09:33:00;-0.70;99.90
7030;DHT22;3556;53.500;10.176;2022-12-10T09:35:26;-0.70;99.90
7030;DHT22;3556;53.500;10.176;2022-12-10T09:37:51;-0.70;99.90
7030;DHT22;3556;53.500;10.176;2022-12-10T09:40:24;-0.80;99.90
7030;DHT22;3556;53.500;10.176;2022-12-10T09:48:10;-0.80;99.90
7030;DHT22;3556;53.500;10.176;2022-12-10T09:51:39;-0.80;99.90
7030;DHT22;3556;53.500;10.176;2022-12-10T09:53:40;-0.80;99.90
7030;DHT22;3556;53.500;10.176;2022-12-10T09:56:18;-0.80;99.90
7030;DHT22;3556;53.500;10.176;2022-12-10T09:58:44;-0.80;99.90
7030;DHT22;3556;53.500;10.176;2022-12-10T10:01:13;-0.70;99.90
7030;DHT22;3556;53.500;10.176;2022-12-10T10:03:41;-0.70;99.90
7030;DHT22;3556;53.500;10.176;2022-12-10T10:06:11;-0.70;99.90
7030;DHT22;3556;53.500;10.176;2022-12-10T10:08:47;-0.70;99.90
7030;DHT22;3556;53.500;10.176;2022-12-10T10:11:37;-0.70;99.90
7030;DHT22;3556;53.500;10.176;2022-12-10T10:14:12;-0.70;99.90
7030;DHT22;3556;53.500;10.176;2022-12-10T10:19:28;-0.70;99.90
7030;DHT22;3556;53.500;10.176;2022-12-10T10:21:55;-0.70;99.90
7030;DHT22;3556;53.500;10.176;2022-12-10T10:24:34;-0.70;99.90
7030;DHT22;3556;53.500;10.176;2022-12-10T10:27:21;-0.70;99.90
7030;DHT22;3556;53.500;10.176;2022-12-10T10:29:51;-0.70;99.90
7030;DHT22;3556;53.500;10.176;2022-12-10T10:32:23;-0.70;99.90
7030;DHT22;3556;53.500;10.176;2022-12-10T10:34:58;-0.70;99.90
7030;DHT22;3556;53.500;10.176;2022-12-10T10:37:29;-0.70;99.90
7030;DHT22;3556;53.500;10.176;2022-12-10T10:39:55;-0.70;99.90
7030;DHT22;3556;53.500;10.176;2022-12-10T10:42:38;-0.70;99.90
7030;DHT22;3556;53.500;10.176;2022-12-10T10:45:29;-0.70;99.90
7030;DHT22;3556;53.500;10.176;2022-12-10T10:48:04;-0.70;99.90
7030;DHT22;3556;53.500;10.176;2022-12-10T10:50:30;-0.70;99.90
7030;DHT22;3556;53.500;10.176;2022-12-10T10:53:01;-0.70;99.90
7030;DHT22;3556;53.500;10.176;2022-12-10T10:55:31;-0.70;99.90
7030;DHT22;3556;53.500;10.176;2022-12-10T10:58:00;-0.70;99.90
7030;DHT22;3556;53.500;10.176;2022-12-10T11:00:26;-0.70;99.90
7030;DHT22;3556;53.500;10.176;2022-12-10T11:02:52;-0.60;99.90
7030;DHT22;3556;53.500;10.176;2022-12-10T11:05:23;-0.60;99.90
7030;DHT22;3556;53.500;10.176;2022-12-10T11:08:00;-0.60;99.90
7030;DHT22;3556;53.500;10.176;2022-12-10T11:10:26;-0.60;99.90
7030;DHT22;3556;53.500;10.176;2022-12-10T11:15:41;-0.60;99.90
7030;DHT22;3556;53.500;10.176;2022-12-10T11:18:31;-0.60;99.90
7030;DHT22;3556;53.500;10.176;2022-12-10T11:21:20;-0.60;99.90
7030;DHT22;3556;53.500;10.176;2022-12-10T11:23:53;-0.60;99.90
7030;DHT22;3556;53.500;10.176;2022-12-10T11:32:24;-0.50;99.90
7030;DHT22;3556;53.500;10.176;2022-12-10T11:40:25;-0.50;99.90
7030;DHT22;3556;53.500;10.176;2022-12-10T11:54:04;-0.50;99.90
7030;DHT22;3556;53.500;10.176;2022-12-10T11:56:45;-0.50;99.90
7030;DHT22;3556;53.500;10.176;2022-12-10T12:04:40;-0.50;99.90
7030;DHT22;3556;53.500;10.176;2022-12-10T12:07:33;-0.50;99.90
7030;DHT22;3556;53.500;10.176;2022-12-10T12:13:06;-0.50;99.90
7030;DHT22;3556;53.500;10.176;2022-12-10T12:15:46;-0.50;99.90
7030;DHT22;3556;53.500;10.176;2022-12-10T12:18:36;-0.40;99.90
7030;DHT22;3556;53.500;10.176;2022-12-10T12:21:13;-0.50;99.90
7030;DHT22;3556;53.500;10.176;2022-12-10T12:26:28;-0.50;99.90
7030;DHT22;3556;53.500;10.176;2022-12-10T12:31:39;-0.50;99.90
7030;DHT22;3556;53.500;10.176;2022-12-10T12:34:26;-0.60;99.90
7030;DHT22;3556;53.500;10.176;2022-12-10T12:36:54;-0.60;99.90
7030;DHT22;3556;53.500;10.176;2022-12-10T12:39:34;-0.60;99.90
7030;DHT22;3556;53.500;10.176;2022-12-10T12:42:24;-0.60;99.90
7030;DHT22;3556;53.500;10.176;2022-12-10T12:45:17;-0.70;99.90
7030;DHT22;3556;53.500;10.176;2022-12-10T12:47:48;-0.70;99.90
7030;DHT22;3556;53.500;10.176;2022-12-10T12:52:53;-0.60;99.90
7030;DHT22;3556;53.500;10.176;2022-12-10T13:00:36;-0.60;99.90
7030;DHT22;3556;53.500;10.176;2022-12-10T13:05:54;-0.60;99.90
7030;DHT22;3556;53.500;10.176;2022-12-10T13:22:11;-0.50;99.90
7030;DHT22;3556;53.500;10.176;2022-12-10T13:30:04;-0.60;99.90
7030;DHT22;3556;53.500;10.176;2022-12-10T13:37:35;-0.60;99.90
7030;DHT22;3556;53.500;10.176;2022-12-10T13:42:36;-0.60;99.90
7030;DHT22;3556;53.500;10.176;2022-12-10T13:47:55;-0.60;99.90
7030;DHT22;3556;53.500;10.176;2022-12-10T13:50:53;-0.60;99.90
7030;DHT22;3556;53.500;10.176;2022-12-10T13:53:47;-0.60;99.90
7030;DHT22;3556;53.500;10.176;2022-12-10T13:56:30;-0.60;99.90
7030;DHT22;3556;53.500;10.176;2022-12-10T13:59:35;-0.60;99.90
7030;DHT22;3556;53.500;10.176;2022-12-10T14:08:02;-0.60;99.90
7030;DHT22;3556;53.500;10.176;2022-12-10T14:10:33;-0.70;99.90
7030;DHT22;3556;53.500;10.176;2022-12-10T14:13:02;-0.60;99.90
7030;DHT22;3556;53.500;10.176;2022-12-10T14:15:28;-0.70;99.90
7030;DHT22;3556;53.500;10.176;2022-12-10T14:18:03;-0.70;99.90
7030;DHT22;3556;53.500;10.176;2022-12-10T14:20:34;-0.80;99.90
7030;DHT22;3556;53.500;10.176;2022-12-10T14:23:04;-0.80;99.90
7030;DHT22;3556;53.500;10.176;2022-12-10T14:25:48;-0.80;99.90
7030;DHT22;3556;53.500;10.176;2022-12-10T14:28:17;-0.80;99.90
7030;DHT22;3556;53.500;10.176;2022-12-10T14:30:48;-0.90;99.90
7030;DHT22;3556;53.500;10.176;2022-12-10T14:33:22;-0.80;99.90
7030;DHT22;3556;53.500;10.176;2022-12-10T14:35:50;-0.90;99.90
7030;DHT22;3556;53.500;10.176;2022-12-10T14:38:20;-0.90;99.90
7030;DHT22;3556;53.500;10.176;2022-12-10T14:40:47;-0.90;99.90
7030;DHT22;3556;53.500;10.176;2022-12-10T14:43:22;-0.90;99.90
7030;DHT22;3556;53.500;10.176;2022-12-10T14:45:53;-0.90;99.90
7030;DHT22;3556;53.500;10.176;2022-12-10T14:48:21;-0.90;99.90
7030;DHT22;3556;53.500;10.176;2022-12-10T14:50:47;-0.80;99.90
7030;DHT22;3556;53.500;10.176;2022-12-10T14:53:18;-0.80;99.90
7030;DHT22;3556;53.500;10.176;2022-12-10T14:55:47;-0.80;99.90
7030;DHT22;3556;53.500;10.176;2022-12-10T14:58:18;-0.80;99.90
7030;DHT22;3556;53.500;10.176;2022-12-10T15:00:48;-0.80;99.90
7030;DHT22;3556;53.500;10.176;2022-12-10T15:03:25;-0.80;99.90
7030;DHT22;3556;53.500;10.176;2022-12-10T15:06:01;-0.80;99.90
7030;DHT22;3556;53.500;10.176;2022-12-10T15:08:28;-0.90;99.90
7030;DHT22;3556;53.500;10.176;2022-12-10T15:10:59;-0.90;99.90
7030;DHT22;3556;53.500;10.176;2022-12-10T15:13:39;-0.90;99.90
7030;DHT22;3556;53.500;10.176;2022-12-10T15:16:06;-0.90;99.90
7030;DHT22;3556;53.500;10.176;2022-12-10T15:18:40;-0.90;99.90
7030;DHT22;3556;53.500;10.176;2022-12-10T15:21:22;-0.90;99.90
7030;DHT22;3556;53.500;10.176;2022-12-10T15:23:50;-0.90;99.90
7030;DHT22;3556;53.500;10.176;2022-12-10T15:26:24;-0.90;99.90
7030;DHT22;3556;53.500;10.176;2022-12-10T15:28:51;-0.90;99.90
7030;DHT22;3556;53.500;10.176;2022-12-10T15:31:28;-0.90;99.90
7030;DHT22;3556;53.500;10.176;2022-12-10T15:34:00;-1.00;99.90
7030;DHT22;3556;53.500;10.176;2022-12-10T15:36:39;-1.00;99.90
7030;DHT22;3556;53.500;10.176;2022-12-10T15:41:46;-1.10;99.90
7030;DHT22;3556;53.500;10.176;2022-12-10T15:44:38;-1.10;99.90
7030;DHT22;3556;53.500;10.176;2022-12-10T15:47:24;-1.10;99.90
7030;DHT22;3556;53.500;10.176;2022-12-10T15:49:52;-1.10;99.90
7030;DHT22;3556;53.500;10.176;2022-12-10T15:52:27;-1.10;99.90
7030;DHT22;3556;53.500;10.176;2022-12-10T15:54:54;-1.10;99.90
7030;DHT22;3556;53.500;10.176;2022-12-10T15:57:28;-1.10;99.90
7030;DHT22;3556;53.500;10.176;2022-12-10T15:59:57;-1.10;99.90
7030;DHT22;3556;53.500;10.176;2022-12-10T16:07:51;-1.10;99.90
7030;DHT22;3556;53.500;10.176;2022-12-10T16:10:19;-1.10;99.90
7030;DHT22;3556;53.500;10.176;2022-12-10T16:12:49;-1.10;99.90
7030;DHT22;3556;53.500;10.176;2022-12-10T16:15:18;-1.10;99.90
7030;DHT22;3556;53.500;10.176;2022-12-10T16:17:45;-1.10;99.90
7030;DHT22;3556;53.500;10.176;2022-12-10T16:20:25;-1.10;99.90
7030;DHT22;3556;53.500;10.176;2022-12-10T16:22:52;-1.10;99.90
7030;DHT22;3556;53.500;10.176;2022-12-10T16:25:18;-1.10;99.90
7030;DHT22;3556;53.500;10.176;2022-12-10T16:27:44;-1.10;99.90
7030;DHT22;3556;53.500;10.176;2022-12-10T16:30:23;-1.20;99.90
7030;DHT22;3556;53.500;10.176;2022-12-10T16:32:50;-1.20;99.90
7030;DHT22;3556;53.500;10.176;2022-12-10T16:35:16;-1.20;99.90
7030;DHT22;3556;53.500;10.176;2022-12-10T16:37:46;-1.20;99.90
7030;DHT22;3556;53.500;10.176;2022-12-10T16:40:15;-1.30;99.90
7030;DHT22;3556;53.500;10.176;2022-12-10T16:42:41;-1.30;99.90
7030;DHT22;3556;53.500;10.176;2022-12-10T16:45:16;-1.30;99.90
7030;DHT22;3556;53.500;10.176;2022-12-10T16:47:42;-1.30;99.90
7030;DHT22;3556;53.500;10.176;2022-12-10T16:50:08;-1.30;99.90
7030;DHT22;3556;53.500;10.176;2022-12-10T16:52:34;-1.30;99.90
7030;DHT22;3556;53.500;10.176;2022-12-10T16:55:00;-1.30;99.90
7030;DHT22;3556;53.500;10.176;2022-12-10T16:57:26;-1.30;99.90
7030;DHT22;3556;53.500;10.176;2022-12-10T16:59:52;-1.30;99.90
7030;DHT22;3556;53.500;10.176;2022-12-10T17:02:18;-1.30;99.90
7030;DHT22;3556;53.500;10.176;2022-12-10T17:04:46;-1.40;99.90
7030;DHT22;3556;53.500;10.176;2022-12-10T17:07:12;-1.40;99.90
7030;DHT22;3556;53.500;10.176;2022-12-10T17:09:39;-1.40;99.90
7030;DHT22;3556;53.500;10.176;2022-12-10T17:12:06;-1.40;99.90
7030;DHT22;3556;53.500;10.176;2022-12-10T17:14:40;-1.40;99.90
7030;DHT22;3556;53.500;10.176;2022-12-10T17:17:10;-1.40;99.90
7030;DHT22;3556;53.500;10.176;2022-12-10T17:19:37;-1.40;99.90
7030;DHT22;3556;53.500;10.176;2022-12-10T17:22:05;-1.40;99.90
7030;DHT22;3556;53.500;10.176;2022-12-10T17:24:31;-1.40;99.90
7030;DHT22;3556;53.500;10.176;2022-12-10T17:27:03;-1.40;99.90
7030;DHT22;3556;53.500;10.176;2022-12-10T17:29:32;-1.40;99.90
7030;DHT22;3556;53.500;10.176;2022-12-10T17:31:59;-1.40;99.90
7030;DHT22;3556;53.500;10.176;2022-12-10T17:34:25;-1.40;99.90
7030;DHT22;3556;53.500;10.176;2022-12-10T17:36:51;-1.40;99.90
7030;DHT22;3556;53.500;10.176;2022-12-10T17:39:18;-1.40;99.90
7030;DHT22;3556;53.500;10.176;2022-12-10T17:41:44;-1.40;99.90
7030;DHT22;3556;53.500;10.176;2022-12-10T17:44:10;-1.40;99.90
7030;DHT22;3556;53.500;10.176;2022-12-10T17:46:36;-1.40;99.90
7030;DHT22;3556;53.500;10.176;2022-12-10T17:49:03;-1.40;99.90
7030;DHT22;3556;53.500;10.176;2022-12-10T17:51:29;-1.40;99.90
7030;DHT22;3556;53.500;10.176;2022-12-10T17:53:55;-1.40;99.90
7030;DHT22;3556;53.500;10.176;2022-12-10T17:56:22;-1.40;99.90
7030;DHT22;3556;53.500;10.176;2022-12-10T17:58:49;-1.40;99.90
7030;DHT22;3556;53.500;10.176;2022-12-10T18:01:17;-1.40;99.90
7030;DHT22;3556;53.500;10.176;2022-12-10T18:03:43;-1.40;99.90